Time;durP1;ratioP1;P1;durP2;ratioP2;P2;SDS_P1;SDS_P2;PMS_P1;PMS_P2;Temp;Humidity;BMP_temperature;BMP_pressure;BME280_temperature;BME280_humidity;BME280_pressure;Samples;Min_cycle;Max_cycle;Signal;HPM_P1;HPM_P2
2021/04/16 00:00:31;;;;;;;4.30;1.90;;;6.50;90.90;;;;;;5036919;28;20045;-69
2021/04/16 00:02:56;;;;;;;5.57;2.28;;;6.50;90.90;;;;;;5045428;28;20041;-69
2021/04/16 00:05:22;;;;;;;4.95;2.08;;;6.60;90.80;;;;;;5038393;28;20036;-69
2021/04/16 00:07:48;;;;;;;4.30;1.75;;;6.60;91.00;;;;;;5033387;28;20393;-69
2021/04/16 00:10:19;;;;;;;6.32;2.25;;;6.60;90.50;;;;;;5026544;28;20036;-69
2021/04/16 00:12:44;;;;;;;6.22;2.67;;;6.60;90.50;;;;;;5031095;28;20029;-68
2021/04/16 00:15:14;;;;;;;5.15;2.35;;;6.70;90.40;;;;;;5032904;28;20091;-68
2021/04/16 00:17:39;;;;;;;5.50;2.35;;;6.70;90.30;;;;;;5032759;28;20025;-69
2021/04/16 00:20:07;;;;;;;5.68;2.33;;;6.60;90.30;;;;;;5015662;28;20032;-68
2021/04/16 00:22:34;;;;;;;5.93;2.13;;;6.60;90.30;;;;;;5041397;28;20386;-68
2021/04/16 00:25:00;;;;;;;4.55;2.42;;;6.70;90.20;;;;;;5035681;28;20035;-68
2021/04/16 00:27:26;;;;;;;8.98;3.13;;;6.70;90.20;;;;;;5041130;28;20025;-68
2021/04/16 00:29:51;;;;;;;5.28;2.08;;;6.70;90.10;;;;;;5037353;28;20040;-68
2021/04/16 00:32:17;;;;;;;3.58;1.92;;;6.70;90.10;;;;;;5032820;28;20525;-69
2021/04/16 00:34:43;;;;;;;3.95;2.03;;;6.70;90.00;;;;;;5002267;28;20034;-68
2021/04/16 00:37:08;;;;;;;3.60;2.03;;;6.80;89.80;;;;;;5013654;28;20529;-69
2021/04/16 00:39:34;;;;;;;4.80;2.00;;;6.80;89.80;;;;;;5028657;28;20056;-69
2021/04/16 00:41:59;;;;;;;5.75;1.90;;;6.80;89.50;;;;;;5036437;28;20112;-69
2021/04/16 00:44:25;;;;;;;3.83;1.65;;;6.70;89.40;;;;;;5039008;28;20033;-69
2021/04/16 00:47:07;;;;;;;5.03;2.47;;;6.70;89.40;;;;;;5035930;28;20021;-69
2021/04/16 00:49:39;;;;;;;4.78;2.05;;;6.70;89.40;;;;;;5020183;28;20102;-69
2021/04/16 00:52:06;;;;;;;3.75;1.80;;;6.70;89.10;;;;;;5031989;28;20050;-69
2021/04/16 00:54:35;;;;;;;5.75;2.17;;;6.70;89.00;;;;;;5032498;28;20049;-68
2021/04/16 00:57:02;;;;;;;2.70;1.67;;;6.70;88.90;;;;;;5037372;28;20028;-69
2021/04/16 00:59:31;;;;;;;4.18;1.80;;;6.70;88.90;;;;;;5036068;28;20025;-69
2021/04/16 01:01:58;;;;;;;6.03;1.90;;;6.70;88.80;;;;;;5035289;28;20614;-69
2021/04/16 01:04:25;;;;;;;3.75;1.92;;;6.70;88.80;;;;;;5036396;28;20026;-69
2021/04/16 01:06:51;;;;;;;6.80;2.30;;;6.70;88.60;;;;;;5034982;28;20111;-69
2021/04/16 01:09:17;;;;;;;6.57;1.70;;;6.70;88.30;;;;;;5043869;28;20021;-69
2021/04/16 01:12:06;;;;;;;3.58;1.67;;;6.80;88.30;;;;;;5049077;28;20033;-69
2021/04/16 01:14:34;;;;;;;3.90;1.67;;;6.70;87.90;;;;;;5032916;28;20041;-69
2021/04/16 01:17:00;;;;;;;5.10;2.08;;;6.70;88.10;;;;;;5036841;28;20074;-68
2021/04/16 01:19:34;;;;;;;3.45;1.60;;;6.80;87.80;;;;;;5050729;28;20044;-69
2021/04/16 01:22:20;;;;;;;6.25;1.85;;;6.70;87.10;;;;;;5048062;28;20044;-69
2021/04/16 01:24:46;;;;;;;6.28;1.83;;;6.80;87.30;;;;;;5032184;28;20044;-69
2021/04/16 01:27:12;;;;;;;3.40;1.75;;;6.80;87.20;;;;;;5035639;28;20025;-69
2021/04/16 01:29:41;;;;;;;4.38;1.73;;;6.70;87.30;;;;;;5030822;28;20394;-69
2021/04/16 01:32:09;;;;;;;4.35;1.67;;;6.80;87.30;;;;;;5039075;28;20664;-69
2021/04/16 01:34:34;;;;;;;4.47;1.55;;;6.80;86.90;;;;;;5038827;28;20032;-69
2021/04/16 01:37:00;;;;;;;4.63;1.77;;;6.80;86.80;;;;;;5047913;28;20025;-69
2021/04/16 01:39:27;;;;;;;2.63;1.70;;;6.80;86.60;;;;;;5026362;28;20098;-69
2021/04/16 01:41:53;;;;;;;3.40;1.63;;;6.80;86.40;;;;;;5039469;28;20045;-69
2021/04/16 01:44:24;;;;;;;6.97;1.80;;;6.80;86.20;;;;;;5031984;28;20025;-69
2021/04/16 01:47:06;;;;;;;3.53;1.63;;;6.80;86.10;;;;;;5034066;28;20024;-69
2021/04/16 01:49:35;;;;;;;4.95;1.77;;;6.70;86.00;;;;;;5031310;28;20048;-69
2021/04/16 01:52:03;;;;;;;5.40;2.53;;;6.80;86.20;;;;;;5013566;28;20026;-69
2021/04/16 01:54:32;;;;;;;4.47;1.65;;;6.70;85.70;;;;;;5051779;28;20464;-69
2021/04/16 01:57:05;;;;;;;3.20;1.42;;;6.80;85.50;;;;;;5037814;28;20566;-69
2021/04/16 01:59:35;;;;;;;5.10;1.75;;;6.80;85.60;;;;;;5032083;28;20038;-68
2021/04/16 02:02:02;;;;;;;6.10;1.60;;;6.70;85.10;;;;;;5029941;28;20053;-69
2021/04/16 02:04:27;;;;;;;2.42;1.25;;;6.70;85.00;;;;;;5030643;28;20030;-68
2021/04/16 02:06:53;;;;;;;4.50;1.73;;;6.70;85.10;;;;;;5029658;28;20037;-69
2021/04/16 02:09:25;;;;;;;3.80;2.00;;;6.70;85.00;;;;;;5031882;28;20025;-68
2021/04/16 02:11:51;;;;;;;5.72;1.60;;;6.70;84.90;;;;;;5029192;28;20128;-68
2021/04/16 02:14:20;;;;;;;2.95;1.40;;;6.70;85.30;;;;;;5014138;28;20466;-68
2021/04/16 02:16:47;;;;;;;3.75;1.50;;;6.70;84.70;;;;;;5030794;28;20029;-69
2021/04/16 02:19:13;;;;;;;6.13;1.50;;;6.70;84.50;;;;;;5046032;28;20083;-69
2021/04/16 02:21:40;;;;;;;4.28;1.48;;;6.70;84.60;;;;;;5048225;28;20123;-69
2021/04/16 02:24:07;;;;;;;4.70;1.60;;;6.70;84.60;;;;;;5043092;28;20021;-69
2021/04/16 02:26:34;;;;;;;3.97;1.58;;;6.70;84.60;;;;;;5037324;28;20041;-69
2021/04/16 02:28:59;;;;;;;7.63;1.50;;;6.70;84.50;;;;;;5021644;28;20537;-69
2021/04/16 02:31:25;;;;;;;4.25;1.50;;;6.70;84.40;;;;;;5026413;28;20124;-69
2021/04/16 02:33:51;;;;;;;5.10;1.70;;;6.70;84.30;;;;;;5031350;28;20100;-69
2021/04/16 02:36:16;;;;;;;4.57;1.70;;;6.80;84.20;;;;;;5030030;28;20116;-69
2021/04/16 02:38:42;;;;;;;2.58;1.25;;;6.80;83.90;;;;;;5018415;28;20171;-69
2021/04/16 02:41:08;;;;;;;5.97;1.35;;;6.80;83.90;;;;;;5038702;28;20553;-69
2021/04/16 02:43:34;;;;;;;3.40;1.42;;;6.80;83.90;;;;;;5011889;28;20038;-69
2021/04/16 02:45:59;;;;;;;7.28;1.80;;;6.80;83.80;;;;;;5018709;28;20032;-69
2021/04/16 02:48:25;;;;;;;3.85;1.42;;;6.80;83.70;;;;;;5039283;28;20029;-69
2021/04/16 02:50:51;;;;;;;3.33;1.60;;;6.80;83.60;;;;;;5031039;28;20550;-69
2021/04/16 02:53:16;;;;;;;4.60;1.88;;;6.90;83.70;;;;;;5051354;28;20021;-69
2021/04/16 02:55:42;;;;;;;3.22;1.67;;;6.80;83.50;;;;;;5043239;28;20025;-69
2021/04/16 02:58:08;;;;;;;6.38;1.40;;;6.80;83.40;;;;;;5051384;28;20481;-69
2021/04/16 03:00:34;;;;;;;4.82;1.45;;;6.90;83.40;;;;;;5048071;28;20049;-69
2021/04/16 03:03:00;;;;;;;4.75;1.52;;;6.80;83.20;;;;;;5031263;28;20041;-69
2021/04/16 03:05:26;;;;;;;2.85;1.40;;;6.80;83.20;;;;;;5028218;28;20121;-69
2021/04/16 03:07:52;;;;;;;4.05;1.50;;;6.80;83.40;;;;;;5037151;28;20033;-69
2021/04/16 03:10:24;;;;;;;7.43;1.50;;;6.80;83.50;;;;;;5031392;28;20034;-69
2021/04/16 03:13:10;;;;;;;4.93;1.70;;;6.70;83.40;;;;;;5030396;28;20071;-69
2021/04/16 03:15:36;;;;;;;4.85;1.55;;;6.70;83.60;;;;;;5030308;28;20107;-69
2021/04/16 03:18:02;;;;;;;4.43;1.67;;;6.60;84.10;;;;;;5033951;28;20074;-69
2021/04/16 03:20:28;;;;;;;7.07;1.60;;;6.60;84.10;;;;;;5034112;28;20488;-69
2021/04/16 03:22:54;;;;;;;5.00;1.58;;;6.70;84.30;;;;;;5051097;28;20127;-68
2021/04/16 03:25:20;;;;;;;5.35;1.58;;;6.70;84.20;;;;;;5051040;28;20377;-69
2021/04/16 03:27:45;;;;;;;3.63;1.40;;;6.70;84.10;;;;;;5032973;28;20116;-69
2021/04/16 03:30:16;;;;;;;4.93;1.35;;;6.70;84.00;;;;;;5048514;28;20045;-69
2021/04/16 03:32:41;;;;;;;5.68;1.70;;;6.70;84.10;;;;;;5049127;28;20029;-69
2021/04/16 03:35:08;;;;;;;3.25;1.50;;;6.70;84.10;;;;;;5048871;28;20022;-69
2021/04/16 03:37:34;;;;;;;3.72;1.58;;;6.70;84.40;;;;;;5048173;28;20039;-69
2021/04/16 03:39:59;;;;;;;3.38;1.58;;;6.70;84.70;;;;;;5034399;28;20116;-69
2021/04/16 03:42:25;;;;;;;5.32;1.48;;;6.70;84.70;;;;;;5046882;28;20493;-69
2021/04/16 03:44:50;;;;;;;3.35;1.52;;;6.70;84.50;;;;;;5048257;28;20018;-69
2021/04/16 03:47:17;;;;;;;3.05;1.50;;;6.70;84.20;;;;;;5043365;28;20021;-69
2021/04/16 03:49:44;;;;;;;5.10;1.50;;;6.70;84.50;;;;;;5014645;28;20771;-69
2021/04/16 03:52:10;;;;;;;3.30;1.63;;;6.70;84.40;;;;;;5044629;28;20107;-69
2021/04/16 03:54:35;;;;;;;3.30;1.70;;;6.70;84.40;;;;;;5034466;28;20116;-69
2021/04/16 03:57:03;;;;;;;4.90;1.70;;;6.80;84.50;;;;;;5031284;28;20025;-69
2021/04/16 03:59:28;;;;;;;5.28;1.55;;;6.80;84.30;;;;;;5012110;28;20045;-69
2021/04/16 04:01:54;;;;;;;5.30;1.95;;;6.70;84.40;;;;;;5032808;28;20045;-69
2021/04/16 04:04:22;;;;;;;6.45;1.45;;;6.70;84.50;;;;;;5047893;28;20024;-69
2021/04/16 04:06:49;;;;;;;3.15;1.42;;;6.70;84.50;;;;;;5040928;28;20029;-69
2021/04/16 04:09:15;;;;;;;2.05;1.30;;;6.70;84.60;;;;;;5048837;28;20030;-69
2021/04/16 04:11:41;;;;;;;7.22;2.38;;;6.70;84.80;;;;;;5039697;28;20029;-69
2021/04/16 04:14:06;;;;;;;6.22;2.15;;;6.70;84.70;;;;;;5046859;28;20021;-69
2021/04/16 04:16:57;;;;;;;6.35;1.60;;;6.70;84.80;;;;;;5021151;28;20036;-69
2021/04/16 04:19:26;;;;;;;6.22;1.65;;;6.70;84.80;;;;;;5046741;28;20033;-69
2021/04/16 04:21:52;;;;;;;7.40;1.73;;;6.60;84.70;;;;;;5049673;28;20039;-69
2021/04/16 04:24:18;;;;;;;4.63;1.60;;;6.60;85.10;;;;;;5046013;28;20029;-69
2021/04/16 04:26:44;;;;;;;3.95;1.67;;;6.60;85.30;;;;;;5039977;28;20025;-69
2021/04/16 04:29:11;;;;;;;6.57;1.70;;;6.60;85.20;;;;;;5038620;28;20031;-70
2021/04/16 04:31:46;;;;;;;4.75;1.58;;;6.60;85.40;;;;;;5041684;28;20034;-69
2021/04/16 04:34:24;;;;;;;6.38;2.08;;;6.60;85.90;;;;;;5033097;28;20104;-69
2021/04/16 04:36:52;;;;;;;4.20;1.70;;;6.60;86.20;;;;;;5041548;28;20405;-69
2021/04/16 04:39:19;;;;;;;5.10;1.77;;;6.60;85.80;;;;;;5039939;28;20018;-69
2021/04/16 04:41:45;;;;;;;6.72;2.47;;;6.60;86.20;;;;;;5038544;28;20037;-68
2021/04/16 04:44:10;;;;;;;5.13;1.75;;;6.60;85.90;;;;;;5043791;28;20044;-68
2021/04/16 04:46:37;;;;;;;5.07;1.73;;;6.60;86.00;;;;;;5039301;28;20515;-67
2021/04/16 04:49:04;;;;;;;3.80;1.90;;;6.60;86.10;;;;;;5044008;28;20128;-68
2021/04/16 04:51:30;;;;;;;3.63;1.83;;;6.60;86.80;;;;;;5049720;28;20086;-68
2021/04/16 04:53:56;;;;;;;8.73;1.80;;;6.60;87.10;;;;;;5044455;28;20053;-68
2021/04/16 04:56:21;;;;;;;3.95;1.70;;;6.60;87.00;;;;;;5037484;28;20043;-68
2021/04/16 04:58:47;;;;;;;4.38;1.63;;;6.60;86.80;;;;;;5046983;28;20026;-68
2021/04/16 05:01:13;;;;;;;5.00;1.92;;;6.60;87.60;;;;;;5035036;28;20044;-68
2021/04/16 05:03:38;;;;;;;6.70;1.65;;;6.50;87.40;;;;;;5043895;28;20178;-68
2021/04/16 05:06:04;;;;;;;6.55;2.00;;;6.50;87.20;;;;;;5034596;28;20078;-68
2021/04/16 05:08:30;;;;;;;7.85;2.90;;;6.60;87.70;;;;;;5046064;28;20104;-69
2021/04/16 05:11:14;;;;;;;6.80;2.80;;;6.50;87.50;;;;;;5038432;28;20499;-69
2021/04/16 05:13:59;;;;;;;5.78;2.05;;;6.50;88.00;;;;;;5033669;28;20055;-68
2021/04/16 05:16:25;;;;;;;6.35;2.28;;;6.60;87.80;;;;;;5037487;28;20469;-69
2021/04/16 05:18:53;;;;;;;3.30;2.20;;;6.60;88.10;;;;;;5021162;28;20128;-69
2021/04/16 05:21:19;;;;;;;8.18;1.80;;;6.60;88.00;;;;;;5022716;28;20035;-68
2021/04/16 05:23:44;;;;;;;4.47;1.92;;;6.60;87.80;;;;;;5041741;28;20041;-68
2021/04/16 05:26:10;;;;;;;5.82;2.08;;;6.60;87.90;;;;;;5034304;28;20501;-67
2021/04/16 05:28:35;;;;;;;2.38;1.50;;;6.60;88.10;;;;;;5042619;28;20032;-69
2021/04/16 05:31:01;;;;;;;7.20;1.88;;;6.70;87.70;;;;;;5032979;28;20047;-69
2021/04/16 05:33:26;;;;;;;6.43;2.08;;;6.70;87.70;;;;;;5044064;28;20096;-69
2021/04/16 05:35:52;;;;;;;6.47;2.35;;;6.70;87.70;;;;;;5019789;28;20033;-69
2021/04/16 05:38:17;;;;;;;6.22;2.22;;;6.80;88.00;;;;;;5042607;28;20038;-69
2021/04/16 05:40:43;;;;;;;5.38;1.55;;;6.80;88.00;;;;;;5036349;28;20548;-69
2021/04/16 05:43:08;;;;;;;4.35;2.17;;;6.70;88.10;;;;;;5044579;28;20040;-69
2021/04/16 05:45:34;;;;;;;4.82;1.60;;;6.70;88.00;;;;;;5013111;28;20037;-69
2021/04/16 05:47:59;;;;;;;4.15;1.88;;;6.80;88.10;;;;;;5042997;28;20028;-69
2021/04/16 05:50:25;;;;;;;5.57;1.80;;;6.80;88.00;;;;;;5031436;28;20041;-69
2021/04/16 05:52:50;;;;;;;4.53;1.90;;;6.80;88.00;;;;;;5036731;28;20041;-70
2021/04/16 05:55:16;;;;;;;3.38;1.58;;;6.80;87.80;;;;;;5032134;28;20025;-69
2021/04/16 05:57:42;;;;;;;3.38;1.63;;;6.80;87.70;;;;;;5045473;28;20184;-69
2021/04/16 06:00:10;;;;;;;6.13;2.13;;;6.80;88.30;;;;;;5031375;28;20033;-70
2021/04/16 06:02:41;;;;;;;5.28;2.17;;;6.80;88.30;;;;;;5041890;28;20474;-70
2021/04/16 06:05:10;;;;;;;3.95;1.77;;;6.80;88.50;;;;;;5027188;28;20406;-68
2021/04/16 06:07:36;;;;;;;5.82;1.70;;;6.80;88.70;;;;;;5045860;28;20390;-67
2021/04/16 06:10:03;;;;;;;12.98;2.15;;;6.80;88.90;;;;;;5031500;28;20026;-68
2021/04/16 06:12:28;;;;;;;5.30;1.50;;;6.80;88.80;;;;;;5043377;28;20044;-68
2021/04/16 06:14:54;;;;;;;4.45;1.83;;;6.80;88.70;;;;;;5030400;28;20033;-68
2021/04/16 06:17:20;;;;;;;6.47;1.80;;;6.80;88.70;;;;;;5035349;28;20473;-68
2021/04/16 06:19:48;;;;;;;3.50;1.75;;;6.80;88.60;;;;;;5032864;28;20105;-70
2021/04/16 06:22:16;;;;;;;6.57;1.77;;;6.80;88.80;;;;;;5040390;28;20124;-68
2021/04/16 06:24:41;;;;;;;8.27;1.98;;;6.90;88.80;;;;;;5031251;28;20029;-68
2021/04/16 06:27:08;;;;;;;6.38;1.63;;;6.90;88.70;;;;;;5041205;28;20036;-69
2021/04/16 06:29:34;;;;;;;9.88;2.10;;;6.90;88.90;;;;;;5030184;28;20049;-69
2021/04/16 06:32:00;;;;;;;3.90;1.58;;;7.00;88.50;;;;;;5029377;28;20079;-69
2021/04/16 06:34:26;;;;;;;6.90;1.38;;;7.00;88.20;;;;;;5030722;28;20026;-68
2021/04/16 06:36:52;;;;;;;5.82;1.77;;;7.20;88.50;;;;;;5039242;28;20160;-69
2021/04/16 06:39:18;;;;;;;6.43;2.10;;;7.30;88.10;;;;;;5023067;28;20025;-70
2021/04/16 06:41:46;;;;;;;7.07;2.15;;;7.40;87.90;;;;;;5026549;28;20504;-70
2021/04/16 06:44:21;;;;;;;4.65;1.70;;;7.50;87.90;;;;;;5014855;28;20386;-68
2021/04/16 06:46:50;;;;;;;5.07;1.98;;;7.60;87.20;;;;;;5024852;28;20033;-70
2021/04/16 06:49:22;;;;;;;6.45;2.20;;;7.60;86.30;;;;;;5012430;28;20037;-69
2021/04/16 06:52:00;;;;;;;3.80;1.83;;;7.60;86.50;;;;;;5032139;28;20034;-72
2021/04/16 06:54:46;;;;;;;6.38;1.85;;;7.60;86.30;;;;;;5016961;28;20029;-70
2021/04/16 06:57:26;;;;;;;5.20;1.90;;;7.70;86.40;;;;;;5044648;28;20048;-70
2021/04/16 07:00:01;;;;;;;5.18;2.00;;;7.70;86.10;;;;;;5033413;28;20111;-71
2021/04/16 07:02:35;;;;;;;4.40;1.40;;;7.70;85.50;;;;;;5035782;28;20044;-72
2021/04/16 07:05:02;;;;;;;6.75;1.98;;;7.70;85.80;;;;;;5023640;28;20033;-73
2021/04/16 07:07:40;;;;;;;3.83;1.65;;;7.90;85.40;;;;;;5032595;28;20116;-72
2021/04/16 07:10:15;;;;;;;5.38;1.75;;;7.80;84.70;;;;;;5030474;28;20040;-72
2021/04/16 07:12:42;;;;;;;5.53;1.80;;;7.90;85.10;;;;;;5046422;28;20021;-72
2021/04/16 07:15:12;;;;;;;6.43;2.20;;;7.90;84.50;;;;;;5041902;28;20034;-72
2021/04/16 07:17:43;;;;;;;3.97;1.83;;;7.90;84.40;;;;;;5037694;28;20045;-73
2021/04/16 07:20:12;;;;;;;6.53;1.92;;;7.90;83.80;;;;;;5034304;28;20112;-72
2021/04/16 07:22:52;;;;;;;3.25;1.90;;;8.00;84.00;;;;;;5033269;28;20497;-71
2021/04/16 07:25:42;;;;;;;4.82;1.80;;;8.00;83.90;;;;;;5013651;28;20041;-76
2021/04/16 07:28:14;;;;;;;2.70;1.45;;;8.00;84.10;;;;;;5030865;28;20036;-74
2021/04/16 07:30:50;;;;;;;3.63;1.80;;;8.10;84.20;;;;;;5034706;28;20021;-74
2021/04/16 07:33:38;;;;;;;4.63;1.92;;;8.10;84.00;;;;;;5025424;28;20549;-76
2021/04/16 07:36:34;;;;;;;5.38;2.53;;;8.20;83.30;;;;;;5035916;28;20033;-74
2021/04/16 07:39:19;;;;;;;5.32;2.03;;;8.30;83.40;;;;;;5024144;28;20028;-73
2021/04/16 07:42:12;;;;;;;3.88;1.95;;;8.30;83.00;;;;;;5033962;28;20025;-73
2021/04/16 07:44:59;;;;;;;4.43;1.90;;;8.40;82.80;;;;;;5033295;28;20037;-73
2021/04/16 07:47:29;;;;;;;4.50;2.17;;;8.40;82.80;;;;;;5041842;28;20478;-73
2021/04/16 07:50:06;;;;;;;6.68;1.60;;;8.40;82.30;;;;;;5035953;28;20095;-73
2021/04/16 07:52:34;;;;;;;3.35;1.90;;;8.50;82.40;;;;;;5041349;28;20056;-73
2021/04/16 07:55:24;;;;;;;7.25;2.00;;;8.50;81.30;;;;;;5032535;28;20028;-73
2021/04/16 07:57:53;;;;;;;3.80;1.30;;;8.60;81.00;;;;;;5032910;28;20030;-73
2021/04/16 08:00:36;;;;;;;3.88;1.73;;;8.60;80.40;;;;;;5028822;28;20053;-74
2021/04/16 08:03:26;;;;;;;3.70;2.00;;;8.50;80.10;;;;;;5033303;28;20041;-74
2021/04/16 08:05:57;;;;;;;4.78;2.72;;;8.60;80.60;;;;;;5033378;28;20076;-73
2021/04/16 08:08:31;;;;;;;9.25;2.80;;;8.60;80.40;;;;;;5033853;28;20029;-73
2021/04/16 08:10:59;;;;;;;11.15;4.18;;;8.60;80.40;;;;;;5045359;28;20018;-73
2021/04/16 08:13:35;;;;;;;5.15;2.10;;;8.70;80.10;;;;;;5042023;28;20082;-74
2021/04/16 08:16:15;;;;;;;8.88;2.38;;;8.70;79.80;;;;;;5033630;28;20025;-73
2021/04/16 08:18:45;;;;;;;3.60;1.60;;;8.80;79.70;;;;;;5043034;28;20021;-71
2021/04/16 08:21:20;;;;;;;5.57;1.90;;;8.80;79.50;;;;;;5027508;28;20083;-71
2021/04/16 08:24:15;;;;;;;7.22;2.40;;;8.90;78.80;;;;;;5028152;28;20045;-71
2021/04/16 08:26:43;;;;;;;4.22;2.30;;;8.90;78.50;;;;;;5016686;28;20053;-77
2021/04/16 08:29:18;;;;;;;3.92;1.98;;;8.90;78.30;;;;;;5032583;28;20045;-76
2021/04/16 08:31:56;;;;;;;4.90;1.63;;;8.90;78.00;;;;;;5024815;28;20037;-76
2021/04/16 08:34:42;;;;;;;6.47;2.33;;;8.90;78.50;;;;;;5006581;28;20033;-76
2021/04/16 08:37:15;;;;;;;4.22;2.28;;;9.10;78.70;;;;;;5034542;28;20045;-75
2021/04/16 08:39:44;;;;;;;5.47;1.95;;;9.20;78.10;;;;;;5032102;28;20465;-76
2021/04/16 08:42:20;;;;;;;5.18;2.03;;;9.30;76.70;;;;;;5032794;28;20036;-75
2021/04/16 08:44:53;;;;;;;5.30;2.13;;;9.30;76.80;;;;;;5032397;28;20029;-75
2021/04/16 08:47:30;;;;;;;3.75;1.80;;;9.40;76.90;;;;;;5032403;28;20034;-75
2021/04/16 08:49:57;;;;;;;5.00;1.92;;;9.50;76.10;;;;;;5026553;28;20102;-75
2021/04/16 08:52:34;;;;;;;4.20;1.75;;;9.60;75.50;;;;;;5041439;28;20057;-75
2021/04/16 08:55:42;;;;;;;6.07;2.28;;;9.60;75.30;;;;;;5034975;28;20032;-74
2021/04/16 08:58:29;;;;;;;5.28;2.42;;;9.70;74.50;;;;;;5032007;28;20061;-71
2021/04/16 09:00:59;;;;;;;10.00;2.30;;;9.70;73.70;;;;;;5017345;28;20132;-73
2021/04/16 09:03:40;;;;;;;3.85;2.00;;;9.70;73.00;;;;;;5030582;28;20040;-75
2021/04/16 09:06:08;;;;;;;5.78;1.65;;;9.70;73.90;;;;;;5032869;28;20041;-75
2021/04/16 09:08:45;;;;;;;5.97;2.47;;;9.60;73.60;;;;;;5032997;28;20025;-74
2021/04/16 09:11:12;;;;;;;5.30;2.78;;;9.70;73.90;;;;;;5027898;28;20463;-75
2021/04/16 09:13:38;;;;;;;5.25;1.77;;;9.80;73.90;;;;;;5024176;28;20037;-74
2021/04/16 09:16:16;;;;;;;4.05;2.25;;;10.00;73.10;;;;;;5032496;28;20025;-74
2021/04/16 09:18:53;;;;;;;4.78;1.80;;;10.00;72.20;;;;;;5032067;28;20061;-75
2021/04/16 09:21:32;;;;;;;5.35;1.90;;;10.10;72.80;;;;;;5032794;28;20040;-74
2021/04/16 09:24:07;;;;;;;9.82;2.22;;;10.10;70.90;;;;;;5022227;28;20116;-74
2021/04/16 09:26:46;;;;;;;10.70;2.08;;;10.10;72.30;;;;;;5032580;28;20021;-73
2021/04/16 09:29:27;;;;;;;4.13;1.60;;;10.20;70.80;;;;;;5031843;28;20025;-72
2021/04/16 09:32:04;;;;;;;4.40;1.60;;;10.20;69.00;;;;;;5009481;28;20117;-71
2021/04/16 09:34:42;;;;;;;4.32;1.67;;;10.30;68.80;;;;;;5032198;28;20028;-73
2021/04/16 09:37:33;;;;;;;4.13;2.17;;;10.30;68.70;;;;;;5031954;28;20233;-72
2021/04/16 09:40:22;;;;;;;4.38;2.50;;;10.30;68.80;;;;;;5024054;28;20108;-72
2021/04/16 09:42:58;;;;;;;6.22;2.30;;;10.30;68.50;;;;;;5038335;28;20095;-73
2021/04/16 09:45:29;;;;;;;5.90;2.00;;;10.30;68.40;;;;;;5032484;28;20108;-73
2021/04/16 09:48:21;;;;;;;5.35;1.90;;;10.40;68.00;;;;;;5032074;28;20552;-71
2021/04/16 09:50:57;;;;;;;7.28;2.60;;;10.50;68.00;;;;;;5011894;28;20045;-74
2021/04/16 09:53:34;;;;;;;6.63;2.40;;;10.50;66.90;;;;;;5031205;28;20488;-72
2021/04/16 09:56:00;;;;;;;3.80;1.70;;;10.50;67.10;;;;;;5029610;28;20079;-76
2021/04/16 09:58:35;;;;;;;4.13;1.73;;;10.60;66.90;;;;;;5013805;28;20033;-71
2021/04/16 10:01:16;;;;;;;4.68;1.98;;;10.60;65.40;;;;;;5030324;28;20052;-71
2021/04/16 10:03:50;;;;;;;5.28;1.63;;;10.60;66.10;;;;;;5031136;28;20038;-77
2021/04/16 10:06:25;;;;;;;;;;;10.70;64.80;;;;;;5032306;28;20487;-75
2021/04/16 10:09:11;;;;;;;7.80;2.15;;;10.60;64.50;;;;;;5030680;28;19924;-79
2021/04/16 10:11:38;;;;;;;6.50;3.03;;;10.60;65.30;;;;;;5031792;28;20032;-72
2021/04/16 10:14:23;;;;;;;2.90;1.70;;;10.70;66.00;;;;;;5029251;28;20053;-70
2021/04/16 10:17:15;;;;;;;7.07;2.25;;;10.90;65.30;;;;;;5032584;28;20083;-71
2021/04/16 10:19:50;;;;;;;5.63;2.00;;;11.10;65.60;;;;;;5031970;28;20056;-75
2021/04/16 10:22:29;;;;;;;6.25;1.73;;;11.10;64.10;;;;;;5040526;28;20036;-78
2021/04/16 10:26:42;;;;;;;3.30;1.70;;;11.10;63.20;;;;;;5031328;28;20030;-79
2021/04/16 10:29:43;;;;;;;5.57;2.55;;;11.10;63.20;;;;;;5027716;28;20097;-72
2021/04/16 10:32:01;;;;;;;7.70;1.93;;;11.20;64.10;;;;;;5022157;28;20566;-73
2021/04/16 10:47:46;;;;;;;6.28;1.90;;;11.70;59.80;;;;;;5030143;28;19932;-73
2021/04/16 10:49:46;;;;;;;5.68;1.80;;;11.60;59.40;;;;;;5025624;28;20057;-78
2021/04/16 11:01:12;;;;;;;3.67;1.10;;;11.90;56.70;;;;;;5016959;28;20536;-80
2021/04/16 11:05:05;;;;;;;3.95;1.42;;;11.80;54.40;;;;;;5029096;28;20405;-79
2021/04/16 11:19:08;;;;;;;3.22;1.75;;;12.10;55.60;;;;;;5030536;28;20092;-80
2021/04/16 11:22:35;;;;;;;4.93;2.25;;;12.10;55.60;;;;;;5031223;28;20418;-80
2021/04/16 11:33:47;;;;;;;6.18;2.03;;;11.80;56.20;;;;;;5035779;28;20401;-80
2021/04/16 12:39:33;;;;;;;4.45;1.90;;;12.70;50.80;;;;;;5025196;28;20129;-80
2021/04/16 12:42:00;;;;;;;5.18;1.50;;;12.80;51.00;;;;;;5012080;28;20124;-80
2021/04/16 12:44:44;;;;;;;3.97;1.63;;;12.90;51.10;;;;;;5032371;28;20029;-80
2021/04/16 12:47:17;;;;;;;4.25;1.67;;;13.00;50.20;;;;;;5038153;28;20116;-80
2021/04/16 12:49:43;;;;;;;4.97;1.90;;;13.00;50.00;;;;;;5033092;28;20057;-78
2021/04/16 12:52:09;;;;;;;3.08;1.60;;;13.20;50.10;;;;;;5032049;28;20030;-82
2021/04/16 12:54:40;;;;;;;2.95;1.73;;;13.20;48.60;;;;;;5032636;28;20037;-79
2021/04/16 12:57:09;;;;;;;2.67;1.52;;;13.20;48.60;;;;;;5030000;28;20036;-80
2021/04/16 12:59:36;;;;;;;5.47;2.00;;;13.30;48.30;;;;;;5020288;28;20032;-79
2021/04/16 13:02:04;;;;;;;3.83;1.85;;;13.30;48.60;;;;;;5033097;28;20079;-80
2021/04/16 13:04:32;;;;;;;4.97;2.05;;;13.30;48.90;;;;;;5029125;28;20048;-79
2021/04/16 13:06:59;;;;;;;2.80;1.67;;;13.40;48.70;;;;;;5041113;28;20033;-80
2021/04/16 13:09:45;;;;;;;5.38;1.85;;;13.40;48.90;;;;;;5035100;28;20120;-79
2021/04/16 13:12:11;;;;;;;3.53;1.67;;;13.40;48.10;;;;;;5044277;28;20116;-78
2021/04/16 13:14:36;;;;;;;7.53;1.73;;;13.20;48.10;;;;;;5047003;28;20021;-75
2021/04/16 13:17:02;;;;;;;3.95;1.90;;;13.20;48.60;;;;;;5042884;28;20036;-82
2021/04/16 13:19:35;;;;;;;5.45;1.58;;;13.20;48.00;;;;;;5026447;28;20025;-82
2021/04/16 13:22:08;;;;;;;3.80;1.65;;;13.20;48.20;;;;;;5025338;28;20490;-81
2021/04/16 13:24:34;;;;;;;5.85;1.70;;;13.10;47.70;;;;;;5031380;28;20075;-79
2021/04/16 13:27:02;;;;;;;3.03;1.75;;;13.20;48.30;;;;;;5040333;28;20134;-82
2021/04/16 13:29:29;;;;;;;5.40;1.80;;;13.40;46.80;;;;;;5032365;28;20048;-81
2021/04/16 13:31:55;;;;;;;5.07;1.52;;;13.50;47.30;;;;;;5045246;28;20036;-80
2021/04/16 13:34:21;;;;;;;4.97;1.67;;;13.60;46.10;;;;;;5030927;28;20037;-80
2021/04/16 13:36:46;;;;;;;3.85;1.50;;;13.50;44.60;;;;;;5031661;28;20393;-80
2021/04/16 13:39:12;;;;;;;4.03;1.70;;;13.50;44.30;;;;;;5017053;28;20112;-80
2021/04/16 13:41:37;;;;;;;3.05;1.50;;;13.30;43.60;;;;;;5048940;28;20045;-80
2021/04/16 13:44:04;;;;;;;3.05;1.70;;;13.20;44.60;;;;;;5025505;28;20080;-78
2021/04/16 13:46:31;;;;;;;3.03;1.42;;;13.10;45.50;;;;;;5029603;28;20057;-79
2021/04/16 13:48:59;;;;;;;3.00;1.27;;;13.20;46.30;;;;;;5031859;28;20033;-80
2021/04/16 13:51:25;;;;;;;3.13;1.70;;;13.20;46.60;;;;;;5027700;28;20061;-79
2021/04/16 13:53:51;;;;;;;5.40;2.13;;;13.10;46.50;;;;;;5035601;28;20109;-80
2021/04/16 13:56:17;;;;;;;2.97;1.40;;;13.10;45.80;;;;;;5032258;28;20034;-80
2021/04/16 13:58:42;;;;;;;5.07;1.98;;;13.20;46.00;;;;;;5030930;28;20021;-81
2021/04/16 14:01:09;;;;;;;5.63;1.88;;;13.30;46.20;;;;;;5031831;28;20103;-81
2021/04/16 14:03:40;;;;;;;4.80;1.80;;;13.50;46.80;;;;;;5031673;28;20052;-80
2021/04/16 14:06:18;;;;;;;3.47;1.63;;;13.70;45.90;;;;;;5014240;28;20029;-79
2021/04/16 14:08:55;;;;;;;4.93;1.70;;;13.80;44.50;;;;;;5031983;28;20033;-79
2021/04/16 14:11:22;;;;;;;6.28;2.22;;;13.80;44.10;;;;;;5032256;28;20163;-80
2021/04/16 14:13:48;;;;;;;4.07;1.50;;;13.70;44.20;;;;;;5032132;28;20026;-80
2021/04/16 14:16:26;;;;;;;4.97;1.88;;;13.70;44.60;;;;;;5031000;28;20033;-80
2021/04/16 14:18:53;;;;;;;6.15;2.17;;;13.80;45.00;;;;;;5025598;28;20101;-79
2021/04/16 14:21:19;;;;;;;4.20;1.77;;;13.90;44.60;;;;;;5031781;28;20474;-79
2021/04/16 14:23:45;;;;;;;5.13;1.70;;;13.90;44.60;;;;;;5029707;28;20107;-78
2021/04/16 14:26:11;;;;;;;4.43;1.65;;;13.90;45.00;;;;;;5013615;28;20026;-80
2021/04/16 14:28:37;;;;;;;6.38;2.08;;;13.90;45.40;;;;;;5030549;28;20045;-77
2021/04/16 14:31:04;;;;;;;4.28;1.70;;;13.90;44.60;;;;;;5030227;28;20088;-79
2021/04/16 14:33:34;;;;;;;5.57;1.65;;;13.70;44.60;;;;;;5031220;28;20022;-79
2021/04/16 14:36:00;;;;;;;6.90;1.80;;;13.70;45.30;;;;;;5031646;28;20028;-79
2021/04/16 14:38:27;;;;;;;5.65;1.77;;;13.80;45.70;;;;;;5031975;28;20068;-79
2021/04/16 14:40:52;;;;;;;3.10;1.83;;;14.10;45.90;;;;;;5030709;28;20382;-77
2021/04/16 14:43:19;;;;;;;4.82;1.70;;;14.30;46.10;;;;;;5032249;28;20068;-77
2021/04/16 14:45:48;;;;;;;5.38;1.85;;;14.20;44.50;;;;;;5030615;28;20467;-79
2021/04/16 14:48:14;;;;;;;11.25;2.08;;;14.30;43.90;;;;;;5031709;28;20034;-77
2021/04/16 14:50:40;;;;;;;3.45;1.40;;;14.30;43.70;;;;;;5030428;28;20179;-77
2021/04/16 14:53:23;;;;;;;4.60;1.58;;;14.20;42.90;;;;;;5012636;28;20033;-78
2021/04/16 14:55:49;;;;;;;3.72;1.52;;;14.30;42.60;;;;;;5014797;28;20029;-79
2021/04/16 14:58:30;;;;;;;3.40;1.73;;;14.20;42.50;;;;;;5031091;28;20406;-77